PWSweather.com
Personal Weather Stations
Station Observations
OBERT
Bodensee Hinterland, OberteuringenDE

Bodensee HinterlandOberteuringenDE

Lat: 47.714675, Lon: 9.44447

Elevation: 1427

Station Type: Wunder Weather Station

High Low Average
Temperature 55.5°F13.1°C 48.2°F9.0°C 51.1°F10.6°C
Dew Point 55.5°F13.1°C -0.1°F-17.8°C 39.8°F4.3°C
Winds 10.2 mph 16.4 kmh Calm Calm 3.0 mph E4.8 kmh E
Wind Gusts 25.9 mph41.7 kmh -- 7.0 mph11.3 kmh
Humidity 100% -5% 76%
Pressure 29.43 in996.6 mb 29.18 in988.1 mb -
Precipitation 0.00 in0.0 mm - -
Hour Temp Dew Point Humidity Winds Wind Gusts Pressure Precip Precip Rate Daily Precip Total
12:02 AM 49.6°F9.8°C -0.1°F-17.8°C -1% Calm Calm -- 29.43 in996.6 mb 0.00 in0.0 mm 0.00 in0.0 mm 0.00 in0.0 mm
12:32 AM 50.0°F10.0°C -0.1°F-17.8°C -1% Calm Calm -- 29.43 in996.6 mb 0.00 in0.0 mm 0.00 in0.0 mm 0.00 in0.0 mm
01:02 AM 51.4°F10.8°C -0.1°F-17.8°C 0% Calm Calm -- 29.43 in996.6 mb 0.00 in0.0 mm 0.00 in0.0 mm 0.00 in0.0 mm
01:32 AM 54.8°F12.7°C 52.2°F11.2°C 90% 4.4 mph N7.1 kmh N 10.0 mph16.1 kmh 29.43 in996.6 mb 0.00 in0.0 mm 0.00 in0.0 mm 0.00 in0.0 mm
02:02 AM 54.1°F12.3°C 52.3°F11.3°C 93% 3.8 mph N6.1 kmh N 11.2 mph18.0 kmh 29.42 in996.3 mb 0.00 in0.0 mm 0.00 in0.0 mm 0.00 in0.0 mm
02:32 AM 53.4°F11.9°C 53.1°F11.7°C 98% 6.8 mph 10.9 kmh 15.0 mph24.1 kmh 29.41 in995.9 mb 0.00 in0.0 mm 0.00 in0.0 mm 0.00 in0.0 mm
03:02 AM 51.6°F10.9°C 51.6°F10.9°C 100% 1.5 mph 2.4 kmh 7.1 mph11.4 kmh 29.41 in995.9 mb 0.00 in0.0 mm 0.00 in0.0 mm 0.00 in0.0 mm
03:32 AM 50.9°F10.5°C 50.9°F10.5°C 100% Calm Calm 4.0 mph6.4 kmh 29.39 in995.3 mb 0.00 in0.0 mm 0.00 in0.0 mm 0.00 in0.0 mm
04:02 AM 50.5°F10.3°C 50.5°F10.3°C 100% Calm Calm -- 29.38 in994.9 mb 0.00 in0.0 mm 0.00 in0.0 mm 0.00 in0.0 mm
04:32 AM 50.1°F10.1°C 50.1°F10.1°C 100% Calm Calm -- 29.36 in994.2 mb 0.00 in0.0 mm 0.00 in0.0 mm 0.00 in0.0 mm
05:02 AM 49.8°F9.9°C 49.8°F9.9°C 100% Calm Calm -- 29.34 in993.6 mb 0.00 in0.0 mm 0.00 in0.0 mm 0.00 in0.0 mm
05:32 AM 49.6°F9.8°C 49.6°F9.8°C 100% Calm Calm -- 29.32 in992.9 mb 0.00 in0.0 mm 0.00 in0.0 mm 0.00 in0.0 mm
06:02 AM 49.2°F9.6°C -0.1°F-17.8°C -5% Calm Calm -- 29.31 in992.6 mb 0.00 in0.0 mm 0.00 in0.0 mm 0.00 in0.0 mm
06:32 AM 49.4°F9.7°C -0.1°F-17.8°C -4% Calm Calm -- 29.30 in992.2 mb 0.00 in0.0 mm 0.00 in0.0 mm 0.00 in0.0 mm
07:02 AM 49.2°F9.6°C -0.1°F-17.8°C -4% Calm Calm 0.3 mph0.5 kmh 29.29 in991.9 mb 0.00 in0.0 mm 0.00 in0.0 mm 0.00 in0.0 mm
07:32 AM 49.2°F9.6°C -0.1°F-17.8°C -4% 1.9 mph SSE3.1 kmh SSE 3.4 mph5.5 kmh 29.29 in991.9 mb 0.00 in0.0 mm 0.00 in0.0 mm 0.00 in0.0 mm
08:02 AM 49.4°F9.7°C -0.1°F-17.8°C -4% 0.4 mph SSE0.6 kmh SSE 3.1 mph5.0 kmh 29.29 in991.9 mb 0.00 in0.0 mm 0.00 in0.0 mm 0.00 in0.0 mm
08:32 AM 50.1°F10.1°C -0.1°F-17.8°C -4% Calm Calm 3.1 mph5.0 kmh 29.28 in991.5 mb 0.00 in0.0 mm 0.00 in0.0 mm 0.00 in0.0 mm
08:45 AM 50.7°F10.4°C -0.1°F-17.8°C -4% Calm Calm 0.6 mph1.0 kmh 29.28 in991.5 mb 0.00 in0.0 mm 0.00 in0.0 mm 0.00 in0.0 mm
09:15 AM 50.7°F10.4°C 50.7°F10.4°C 100% 2.8 mph SSE4.5 kmh SSE 6.2 mph10.0 kmh 29.27 in991.2 mb 0.00 in0.0 mm 0.00 in0.0 mm 0.00 in0.0 mm
09:45 AM 51.4°F10.8°C 51.4°F10.8°C 100% 4.4 mph S7.1 kmh S 6.8 mph10.9 kmh 29.26 in990.9 mb 0.00 in0.0 mm 0.00 in0.0 mm 0.00 in0.0 mm
10:15 AM 52.3°F11.3°C 52.3°F11.3°C 100% 2.1 mph SSE3.4 kmh SSE 5.3 mph8.5 kmh 29.26 in990.9 mb 0.00 in0.0 mm 0.00 in0.0 mm 0.00 in0.0 mm
10:45 AM 52.5°F11.4°C 52.5°F11.4°C 100% 3.2 mph S5.1 kmh S 7.8 mph12.6 kmh 29.24 in990.2 mb 0.00 in0.0 mm 0.00 in0.0 mm 0.00 in0.0 mm
11:15 AM 53.4°F11.9°C 53.4°F11.9°C 100% 5.1 mph S8.2 kmh S 7.8 mph12.6 kmh 29.23 in989.8 mb 0.00 in0.0 mm 0.00 in0.0 mm 0.00 in0.0 mm
11:45 AM 53.4°F11.9°C 53.4°F11.9°C 100% 5.0 mph SE8.0 kmh SE 8.7 mph14.0 kmh 29.22 in989.5 mb 0.00 in0.0 mm 0.00 in0.0 mm 0.00 in0.0 mm
12:15 PM 52.8°F11.6°C 52.8°F11.6°C 100% 4.2 mph SE6.8 kmh SE 9.6 mph15.4 kmh 29.22 in989.5 mb 0.00 in0.0 mm 0.00 in0.0 mm 0.00 in0.0 mm
12:45 PM 53.6°F12.0°C 53.6°F12.0°C 100% 6.5 mph SSE10.5 kmh SSE 12.5 mph20.1 kmh 29.19 in988.5 mb 0.00 in0.0 mm 0.00 in0.0 mm 0.00 in0.0 mm
01:15 PM 55.5°F13.1°C 55.5°F13.1°C 100% 6.8 mph SSE10.9 kmh SSE 12.8 mph20.6 kmh 29.18 in988.1 mb 0.00 in0.0 mm 0.00 in0.0 mm 0.00 in0.0 mm
01:45 PM 55.5°F13.1°C 55.5°F13.1°C 100% 6.9 mph SSE11.1 kmh SSE 11.5 mph18.5 kmh 29.18 in988.1 mb 0.00 in0.0 mm 0.00 in0.0 mm 0.00 in0.0 mm
02:15 PM 54.3°F12.4°C 54.3°F12.4°C 100% 0.8 mph E1.3 kmh E 6.5 mph10.5 kmh 29.19 in988.5 mb 0.00 in0.0 mm 0.00 in0.0 mm 0.00 in0.0 mm
02:45 PM 53.7°F12.1°C 53.7°F12.1°C 100% 4.7 mph ESE7.6 kmh ESE 9.3 mph15.0 kmh 29.19 in988.5 mb 0.00 in0.0 mm 0.00 in0.0 mm 0.00 in0.0 mm
03:15 PM 53.7°F12.1°C 53.7°F12.1°C 100% 4.1 mph ESE6.6 kmh ESE 9.6 mph15.4 kmh 29.18 in988.1 mb 0.00 in0.0 mm 0.00 in0.0 mm 0.00 in0.0 mm
03:45 PM 53.6°F12.0°C 53.6°F12.0°C 100% 1.9 mph S3.1 kmh S 9.0 mph14.5 kmh 29.19 in988.5 mb 0.00 in0.0 mm 0.00 in0.0 mm 0.00 in0.0 mm
04:15 PM 53.0°F11.7°C 53.0°F11.7°C 100% 7.0 mph 11.3 kmh 8.7 mph14.0 kmh 29.23 in989.8 mb 0.00 in0.0 mm 0.00 in0.0 mm 0.00 in0.0 mm
04:45 PM 52.5°F11.4°C 52.5°F11.4°C 100% 3.5 mph 5.6 kmh 12.8 mph20.6 kmh 29.24 in990.2 mb 0.00 in0.0 mm 0.00 in0.0 mm 0.00 in0.0 mm
05:15 PM 51.6°F10.9°C 51.6°F10.9°C 100% 7.2 mph 11.6 kmh 12.5 mph20.1 kmh 29.26 in990.9 mb 0.00 in0.0 mm 0.00 in0.0 mm 0.00 in0.0 mm
05:45 PM 50.0°F10.0°C 50.0°F10.0°C 100% 7.3 mph N11.7 kmh N 15.6 mph25.1 kmh 29.28 in991.5 mb 0.00 in0.0 mm 0.00 in0.0 mm 0.00 in0.0 mm
06:15 PM 49.4°F9.7°C 49.4°F9.7°C 100% 0.1 mph N0.2 kmh N 2.8 mph4.5 kmh 29.28 in991.5 mb 0.00 in0.0 mm 0.00 in0.0 mm 0.00 in0.0 mm
06:45 PM 48.5°F9.2°C 48.5°F9.2°C 100% Calm Calm -- 29.29 in991.9 mb 0.00 in0.0 mm 0.00 in0.0 mm 0.00 in0.0 mm
07:15 PM 48.3°F9.1°C 48.3°F9.1°C 100% Calm Calm -- 29.31 in992.6 mb 0.00 in0.0 mm 0.00 in0.0 mm 0.00 in0.0 mm
07:45 PM 48.2°F9.0°C 48.2°F9.0°C 100% Calm Calm -- 29.32 in992.9 mb 0.00 in0.0 mm 0.00 in0.0 mm 0.00 in0.0 mm
08:15 PM 48.3°F9.1°C 48.3°F9.1°C 100% Calm Calm -- 29.33 in993.2 mb 0.00 in0.0 mm 0.00 in0.0 mm 0.00 in0.0 mm
08:45 PM 48.7°F9.3°C -0.1°F-17.8°C -5% Calm Calm -- 29.34 in993.6 mb 0.00 in0.0 mm 0.00 in0.0 mm 0.00 in0.0 mm
09:15 PM 49.4°F9.7°C 49.4°F9.7°C 100% 1.4 mph 2.3 kmh 6.2 mph10.0 kmh 29.35 in993.9 mb 0.00 in0.0 mm 0.00 in0.0 mm 0.00 in0.0 mm
09:45 PM 49.8°F9.9°C 49.8°F9.9°C 100% 3.1 mph 5.0 kmh 8.4 mph13.5 kmh 29.36 in994.2 mb 0.00 in0.0 mm 0.00 in0.0 mm 0.00 in0.0 mm
10:15 PM 50.1°F10.1°C 50.1°F10.1°C 100% 2.8 mph 4.5 kmh 10.0 mph16.1 kmh 29.37 in994.6 mb 0.00 in0.0 mm 0.00 in0.0 mm 0.00 in0.0 mm
10:45 PM 49.1°F9.5°C 49.1°F9.5°C 100% 9.5 mph N15.3 kmh N 25.9 mph41.7 kmh 29.39 in995.3 mb 0.00 in0.0 mm 0.00 in0.0 mm 0.00 in0.0 mm
11:15 PM 49.6°F9.8°C 49.6°F9.8°C 100% 7.5 mph N12.1 kmh N 17.8 mph28.6 kmh 29.41 in995.9 mb 0.00 in0.0 mm 0.00 in0.0 mm 0.00 in0.0 mm
11:45 PM 48.9°F9.4°C 48.7°F9.3°C 99% 10.2 mph 16.4 kmh 20.6 mph33.2 kmh 29.42 in996.3 mb 0.00 in0.0 mm 0.00 in0.0 mm 0.00 in0.0 mm